Wetterdaten: Woche 15.09.14 - 21.09.14 (KW38)
Datum Zeit Temp. A. Feuchte A. Luftdruck Regen Wind Richtung Sonnenschein ET UV Solar Taupunkt Windchill Windben Empfang
15.09.2014 00:00 10,3 C 94 % 1016,0 hPa 0,0 l/m 0,0 km/h (0 Bft) N 0,00 h 0,000 mm 0,0 UV-I 0 W/m 9,4 C 10,3 C 0,0 km/h (0 Bft) 0,00 %
15.09.2014 01:00 10,7 C 95 % 1016,0 hPa 0,0 l/m 0,0 km/h (0 Bft) N 0,00 h 0,000 mm 0,0 UV-I 0 W/m 9,9 C 10,7 C 0,0 km/h (0 Bft) 0,00 %
15.09.2014 02:00 11,2 C 94 % 1015,9 hPa 0,0 l/m 0,0 km/h (0 Bft) N 0,00 h 0,000 mm 0,0 UV-I 0 W/m 10,3 C 11,2 C 0,0 km/h (0 Bft) 0,00 %
15.09.2014 03:00 10,5 C 95 % 1015,9 hPa 0,0 l/m 0,0 km/h (0 Bft) N 0,00 h 0,000 mm 0,0 UV-I 0 W/m 9,7 C 10,5 C 0,0 km/h (0 Bft) 0,00 %
15.09.2014 04:00 10,0 C 96 % 1016,0 hPa 0,0 l/m 0,0 km/h (0 Bft) N 0,00 h 0,000 mm 0,0 UV-I 0 W/m 9,4 C 10,0 C 0,0 km/h (0 Bft) 0,00 %
15.09.2014 05:00 9,6 C 96 % 1016,0 hPa 0,0 l/m 0,0 km/h (0 Bft) N 0,00 h 0,000 mm 0,0 UV-I 0 W/m 9,0 C 9,6 C 0,0 km/h (0 Bft) 0,00 %
15.09.2014 06:00 9,9 C 96 % 1016,1 hPa 0,0 l/m 0,0 km/h (0 Bft) N 0,00 h 0,000 mm 1,0 UV-I 0 W/m 9,3 C 9,9 C 0,0 km/h (0 Bft) 0,00 %
15.09.2014 07:00 10,4 C 96 % 1016,2 hPa 0,0 l/m 0,0 km/h (0 Bft) N 0,00 h 0,000 mm 1,0 UV-I 32 W/m 9,8 C 10,4 C 0,0 km/h (0 Bft) 0,00 %
15.09.2014 08:00 11,9 C 95 % 1016,0 hPa 0,0 l/m 0,0 km/h (0 Bft) N 0,00 h 0,000 mm 1,0 UV-I 88 W/m 11,1 C 11,9 C 0,0 km/h (0 Bft) 0,00 %
15.09.2014 09:00 12,6 C 95 % 1016,0 hPa 0,0 l/m 0,4 km/h (0 Bft) N-NW 0,00 h 0,000 mm 1,7 UV-I 113 W/m 11,8 C 12,6 C 1,0 km/h (0 Bft) 0,00 %
15.09.2014 10:00 13,5 C 90 % 1016,0 hPa 0,0 l/m 0,6 km/h (0 Bft) NO 0,00 h 0,000 mm 3,7 UV-I 179 W/m 11,9 C 13,5 C 3,0 km/h (1 Bft) 0,00 %
15.09.2014 11:00 16,1 C 78 % 1015,3 hPa 0,0 l/m 0,7 km/h (0 Bft) O-NO 0,25 h 0,000 mm 3,7 UV-I 347 W/m 12,2 C 16,1 C 2,0 km/h (1 Bft) 0,00 %
15.09.2014 12:00 17,2 C 73 % 1014,7 hPa 0,0 l/m 1,4 km/h (1 Bft) NO 0,25 h 0,000 mm 5,0 UV-I 407 W/m 12,3 C 17,2 C 4,0 km/h (1 Bft) 0,00 %
15.09.2014 13:00 18,6 C 70 % 1013,9 hPa 0,0 l/m 1,0 km/h (0 Bft) NO 1,00 h 0,000 mm 3,0 UV-I 632 W/m 13,0 C 18,6 C 3,0 km/h (1 Bft) 0,00 %
15.09.2014 14:00 18,8 C 68 % 1013,5 hPa 0,0 l/m 5,5 km/h (1 Bft) O 0,75 h 0,000 mm 2,3 UV-I 656 W/m 12,6 C 18,5 C 8,9 km/h (2 Bft) 0,00 %
15.09.2014 15:00 19,1 C 64 % 1012,8 hPa 0,0 l/m 7,4 km/h (2 Bft) O 1,00 h 0,000 mm 2,0 UV-I 620 W/m 12,2 C 18,4 C 9,9 km/h (2 Bft) 0,00 %
15.09.2014 16:00 19,6 C 63 % 1012,0 hPa 0,0 l/m 2,3 km/h (1 Bft) O 1,00 h 0,000 mm 1,3 UV-I 593 W/m 12,4 C 19,6 C 4,9 km/h (1 Bft) 0,00 %
15.09.2014 17:00 19,8 C 61 % 1012,2 hPa 0,0 l/m 8,8 km/h (2 Bft) O-NO 1,00 h 0,000 mm 1,0 UV-I 504 W/m 12,0 C 18,9 C 12,9 km/h (3 Bft) 0,00 %
15.09.2014 18:00 18,6 C 66 % 1012,8 hPa 0,0 l/m 3,4 km/h (1 Bft) O 1,00 h 0,000 mm 0,0 UV-I 175 W/m 12,2 C 18,5 C 5,0 km/h (1 Bft) 0,00 %
15.09.2014 19:00 16,4 C 76 % 1013,6 hPa 0,0 l/m 0,3 km/h (0 Bft) SO 0,25 h 0,000 mm 0,0 UV-I 4 W/m 12,1 C 16,4 C 2,0 km/h (1 Bft) 0,00 %
15.09.2014 20:00 15,8 C 79 % 1013,9 hPa 0,0 l/m 2,0 km/h (1 Bft) O 0,00 h 0,000 mm 0,0 UV-I 0 W/m 12,1 C 15,8 C 5,0 km/h (1 Bft) 0,00 %
15.09.2014 21:00 15,3 C 81 % 1014,0 hPa 0,0 l/m 2,3 km/h (1 Bft) O-NO 0,00 h 0,000 mm 0,0 UV-I 0 W/m 12,0 C 15,3 C 4,9 km/h (1 Bft) 0,00 %
15.09.2014 22:00 14,6 C 84 % 1014,2 hPa 0,0 l/m 1,3 km/h (1 Bft) O 0,00 h 0,000 mm 0,0 UV-I 0 W/m 11,9 C 14,6 C 3,0 km/h (1 Bft) 0,00 %
15.09.2014 23:00 13,9 C 88 % 1014,2 hPa 0,0 l/m 0,1 km/h (0 Bft) N 0,00 h 0,000 mm 0,0 UV-I 0 W/m 11,8 C 13,9 C 1,0 km/h (0 Bft) 0,00 %
16.09.2014 00:00 13,6 C 89 % 1014,1 hPa 0,0 l/m 1,3 km/h (1 Bft) O-NO 0,00 h 0,000 mm 0,0 UV-I 0 W/m 11,7 C 13,6 C 4,0 km/h (1 Bft) 0,00 %
16.09.2014 01:00 13,4 C 89 % 1013,9 hPa 0,0 l/m 1,6 km/h (1 Bft) O 0,00 h 0,000 mm 0,0 UV-I 0 W/m 11,6 C 13,4 C 2,0 km/h (1 Bft) 0,00 %
16.09.2014 02:00 13,1 C 89 % 1014,0 hPa 0,0 l/m 1,5 km/h (1 Bft) O 0,00 h 0,000 mm 0,0 UV-I 0 W/m 11,3 C 13,1 C 3,0 km/h (1 Bft) 0,00 %
16.09.2014 03:00 13,0 C 89 % 1013,9 hPa 0,0 l/m 1,5 km/h (1 Bft) O 0,00 h 0,000 mm 0,0 UV-I 0 W/m 11,3 C 13,0 C 5,0 km/h (1 Bft) 0,00 %
16.09.2014 04:00 12,6 C 91 % 1014,0 hPa 0,0 l/m 0,1 km/h (0 Bft) N 0,00 h 0,000 mm 0,0 UV-I 0 W/m 11,2 C 12,6 C 1,0 km/h (0 Bft) 0,00 %
16.09.2014 05:00 12,2 C 92 % 1014,2 hPa 0,0 l/m 0,1 km/h (0 Bft) N 0,00 h 0,000 mm 0,0 UV-I 0 W/m 10,9 C 12,2 C 1,0 km/h (0 Bft) 0,00 %
16.09.2014 06:00 11,1 C 92 % 1014,6 hPa 0,0 l/m 0,0 km/h (0 Bft) N 0,00 h 0,000 mm 1,0 UV-I 0 W/m 9,8 C 11,1 C 0,0 km/h (0 Bft) 0,00 %
16.09.2014 07:00 12,0 C 92 % 1014,9 hPa 0,0 l/m 0,1 km/h (0 Bft) N 0,00 h 0,000 mm 1,0 UV-I 16 W/m 10,8 C 12,0 C 1,0 km/h (0 Bft) 0,00 %
16.09.2014 08:00 13,7 C 86 % 1014,9 hPa 0,0 l/m 0,1 km/h (0 Bft) O 0,00 h 0,000 mm 2,3 UV-I 121 W/m 11,4 C 13,7 C 1,0 km/h (0 Bft) 0,00 %
16.09.2014 09:00 16,2 C 75 % 1014,7 hPa 0,0 l/m 2,6 km/h (1 Bft) O-SO 0,00 h 0,000 mm 3,7 UV-I 197 W/m 11,7 C 16,2 C 4,9 km/h (1 Bft) 0,00 %
16.09.2014 10:00 18,3 C 68 % 1014,3 hPa 0,0 l/m 0,1 km/h (0 Bft) N 0,25 h 0,000 mm 4,0 UV-I 292 W/m 12,2 C 18,3 C 1,0 km/h (0 Bft) 0,00 %
16.09.2014 11:00 19,3 C 65 % 1013,8 hPa 0,0 l/m 0,4 km/h (0 Bft) O-NO 0,75 h 0,000 mm 5,7 UV-I 394 W/m 12,6 C 19,3 C 1,0 km/h (0 Bft) 0,00 %
16.09.2014 12:00 19,3 C 64 % 1013,4 hPa 0,0 l/m 1,5 km/h (1 Bft) O 0,75 h 0,000 mm 5,3 UV-I 561 W/m 12,4 C 19,3 C 4,0 km/h (1 Bft) 0,00 %
16.09.2014 13:00 19,8 C 62 % 1013,0 hPa 0,0 l/m 1,8 km/h (1 Bft) NO 1,00 h 0,000 mm 3,0 UV-I 623 W/m 12,2 C 19,8 C 5,0 km/h (1 Bft) 0,00 %
16.09.2014 14:00 20,2 C 64 % 1012,4 hPa 0,0 l/m 1,4 km/h (1 Bft) O-NO 1,00 h 0,000 mm 2,0 UV-I 683 W/m 13,0 C 20,2 C 6,0 km/h (2 Bft) 0,00 %
16.09.2014 15:00 20,1 C 63 % 1012,0 hPa 0,0 l/m 7,5 km/h (2 Bft) O-NO 1,00 h 0,000 mm 2,0 UV-I 670 W/m 12,7 C 19,2 C 9,9 km/h (2 Bft) 0,00 %
16.09.2014 16:00 20,1 C 62 % 1011,8 hPa 0,0 l/m 8,1 km/h (2 Bft) O-SO 1,00 h 0,000 mm 1,0 UV-I 652 W/m 12,6 C 19,0 C 12,9 km/h (3 Bft) 0,00 %
16.09.2014 17:00 19,9 C 63 % 1011,8 hPa 0,0 l/m 9,0 km/h (2 Bft) SO 1,00 h 0,000 mm 1,0 UV-I 452 W/m 12,5 C 18,7 C 13,9 km/h (3 Bft) 0,00 %
16.09.2014 18:00 18,6 C 67 % 1012,5 hPa 0,0 l/m 9,6 km/h (2 Bft) O-SO 1,00 h 0,000 mm 0,0 UV-I 167 W/m 12,2 C 17,0 C 14,8 km/h (3 Bft) 0,00 %
16.09.2014 19:00 16,9 C 73 % 1013,0 hPa 0,0 l/m 4,3 km/h (1 Bft) O 0,00 h 0,000 mm 0,0 UV-I 0 W/m 11,9 C 16,4 C 7,9 km/h (2 Bft) 0,00 %
16.09.2014 20:00 15,9 C 76 % 1013,4 hPa 0,0 l/m 5,0 km/h (1 Bft) O 0,00 h 0,000 mm 0,0 UV-I 0 W/m 11,7 C 15,5 C 8,9 km/h (2 Bft) 0,00 %
16.09.2014 21:00 15,0 C 81 % 1013,4 hPa 0,0 l/m 1,8 km/h (1 Bft) O-NO 0,00 h 0,000 mm 0,0 UV-I 0 W/m 11,7 C 15,0 C 3,0 km/h (1 Bft) 0,00 %
16.09.2014 22:00 14,6 C 83 % 1013,6 hPa 0,0 l/m 1,7 km/h (1 Bft) O-NO 0,00 h 0,000 mm 0,0 UV-I 0 W/m 11,7 C 14,6 C 5,0 km/h (1 Bft) 0,00 %
16.09.2014 23:00 14,3 C 84 % 1013,6 hPa 0,0 l/m 1,0 km/h (0 Bft) N 0,00 h 0,000 mm 0,0 UV-I 0 W/m 11,7 C 14,3 C 2,7 km/h (1 Bft) 0,00 %
17.09.2014 00:00 13,6 C 86 % 1013,6 hPa 0,0 l/m 1,6 km/h (1 Bft) O-SO 0,00 h 0,000 mm 0,0 UV-I 0 W/m 11,3 C 13,6 C 5,0 km/h (1 Bft) 0,00 %
17.09.2014 01:00 13,1 C 88 % 1013,5 hPa 0,0 l/m 1,1 km/h (1 Bft) O 0,00 h 0,000 mm 0,0 UV-I 0 W/m 11,1 C 13,1 C 4,0 km/h (1 Bft) 0,00 %
17.09.2014 02:00 12,3 C 89 % 1013,4 hPa 0,0 l/m 0,0 km/h (0 Bft) N 0,00 h 0,000 mm 0,0 UV-I 0 W/m 10,6 C 12,3 C 0,0 km/h (0 Bft) 0,00 %
17.09.2014 03:00 11,5 C 91 % 1013,5 hPa 0,0 l/m 0,0 km/h (0 Bft) N 0,00 h 0,000 mm 0,0 UV-I 0 W/m 10,1 C 11,5 C 0,0 km/h (0 Bft) 0,00 %
17.09.2014 04:00 11,0 C 92 % 1013,4 hPa 0,0 l/m 0,0 km/h (0 Bft) N 0,00 h 0,000 mm 0,0 UV-I 0 W/m 9,8 C 11,0 C 0,0 km/h (0 Bft) 0,00 %
17.09.2014 05:00 10,5 C 93 % 1013,1 hPa 0,0 l/m 0,0 km/h (0 Bft) N 0,00 h 0,000 mm 0,0 UV-I 0 W/m 9,5 C 10,5 C 0,0 km/h (0 Bft) 0,00 %
17.09.2014 06:00 9,7 C 93 % 1013,4 hPa 0,0 l/m 0,0 km/h (0 Bft) N 0,00 h 0,000 mm 1,0 UV-I 3 W/m 8,6 C 9,7 C 0,0 km/h (0 Bft) 0,00 %
17.09.2014 07:00 10,4 C 93 % 1013,6 hPa 0,0 l/m 0,0 km/h (0 Bft) N 0,50 h 0,000 mm 1,0 UV-I 64 W/m 9,3 C 10,4 C 0,0 km/h (0 Bft) 0,00 %
17.09.2014 08:00 15,3 C 76 % 1012,8 hPa 0,0 l/m 0,1 km/h (0 Bft) O 0,00 h 0,000 mm 1,7 UV-I 101 W/m 11,0 C 15,3 C 1,0 km/h (0 Bft) 0,00 %
17.09.2014 09:00 16,3 C 71 % 1012,5 hPa 0,0 l/m 1,2 km/h (1 Bft) O-SO 0,00 h 0,000 mm 3,3 UV-I 160 W/m 10,9 C 16,3 C 5,0 km/h (1 Bft) 0,00 %
17.09.2014 10:00 18,8 C 63 % 1012,1 hPa 0,0 l/m 4,8 km/h (1 Bft) O-SO 0,00 h 0,000 mm 4,3 UV-I 273 W/m 11,6 C 18,7 C 7,9 km/h (2 Bft) 0,00 %
17.09.2014 11:00 20,2 C 60 % 1011,7 hPa 0,0 l/m 5,0 km/h (1 Bft) O 1,00 h 0,000 mm 5,3 UV-I 393 W/m 12,0 C 19,8 C 8,9 km/h (2 Bft) 0,00 %
17.09.2014 12:00 21,0 C 56 % 1011,0 hPa 0,0 l/m 4,7 km/h (1 Bft) O 1,00 h 0,000 mm 5,3 UV-I 567 W/m 11,8 C 21,0 C 7,9 km/h (2 Bft) 0,00 %
17.09.2014 13:00 21,6 C 52 % 1010,2 hPa 0,0 l/m 4,4 km/h (1 Bft) N-NO 1,00 h 0,000 mm 3,0 UV-I 599 W/m 11,4 C 21,5 C 7,9 km/h (2 Bft) 0,00 %
17.09.2014 14:00 22,3 C 51 % 1009,6 hPa 0,0 l/m 6,8 km/h (2 Bft) O-SO 1,00 h 0,000 mm 2,0 UV-I 630 W/m 11,7 C 21,8 C 11,9 km/h (2 Bft) 0,00 %
17.09.2014 15:00 22,8 C 48 % 1008,9 hPa 0,0 l/m 11,4 km/h (2 Bft) O-SO 1,00 h 0,000 mm 2,0 UV-I 628 W/m 11,2 C 21,4 C 17,0 km/h (3 Bft) 0,00 %
17.09.2014 16:00 22,9 C 45 % 1008,5 hPa 0,0 l/m 4,8 km/h (1 Bft) NO 1,00 h 0,000 mm 1,3 UV-I 601 W/m 10,2 C 22,9 C 7,9 km/h (2 Bft) 0,00 %
17.09.2014 17:00 23,1 C 44 % 1008,4 hPa 0,0 l/m 5,9 km/h (2 Bft) O 1,00 h 0,000 mm 1,0 UV-I 499 W/m 10,0 C 23,0 C 9,9 km/h (2 Bft) 0,00 %
17.09.2014 18:00 21,5 C 49 % 1008,7 hPa 0,0 l/m 4,2 km/h (1 Bft) O 1,00 h 0,000 mm 0,0 UV-I 237 W/m 10,2 C 21,3 C 6,9 km/h (2 Bft) 0,00 %
17.09.2014 19:00 18,6 C 59 % 1009,5 hPa 0,0 l/m 0,0 km/h (0 Bft) N 0,00 h 0,000 mm 0,0 UV-I 0 W/m 10,3 C 18,6 C 0,0 km/h (0 Bft) 0,00 %
17.09.2014 20:00 16,3 C 68 % 1010,4 hPa 0,0 l/m 0,1 km/h (0 Bft) N 0,00 h 0,000 mm 0,0 UV-I 0 W/m 10,2 C 16,3 C 1,0 km/h (0 Bft) 0,00 %
17.09.2014 21:00 15,1 C 71 % 1010,8 hPa 0,0 l/m 0,3 km/h (0 Bft) N 0,00 h 0,000 mm 0,0 UV-I 0 W/m 9,8 C 15,1 C 2,0 km/h (1 Bft) 0,00 %
17.09.2014 22:00 14,4 C 72 % 1010,9 hPa 0,0 l/m 0,4 km/h (0 Bft) N 0,00 h 0,000 mm 0,0 UV-I 0 W/m 9,4 C 14,4 C 3,0 km/h (1 Bft) 0,00 %
17.09.2014 23:00 13,7 C 73 % 1011,1 hPa 0,0 l/m 0,4 km/h (0 Bft) N 0,00 h 0,000 mm 0,0 UV-I 0 W/m 9,0 C 13,7 C 3,0 km/h (1 Bft) 0,00 %
18.09.2014 00:00 13,1 C 76 % 1011,2 hPa 0,0 l/m 0,3 km/h (0 Bft) O-SO 0,00 h 0,000 mm 0,0 UV-I 0 W/m 9,0 C 13,1 C 1,0 km/h (0 Bft) 0,00 %
18.09.2014 01:00 12,6 C 78 % 1011,3 hPa 0,0 l/m 0,6 km/h (0 Bft) N 0,00 h 0,000 mm 0,0 UV-I 0 W/m 8,8 C 12,6 C 1,0 km/h (0 Bft) 0,00 %
18.09.2014 02:00 11,7 C 80 % 1011,4 hPa 0,0 l/m 0,0 km/h (0 Bft) N 0,00 h 0,000 mm 0,0 UV-I 0 W/m 8,4 C 11,7 C 0,0 km/h (0 Bft) 0,00 %
18.09.2014 03:00 10,8 C 84 % 1011,7 hPa 0,0 l/m 0,0 km/h (0 Bft) N 0,00 h 0,000 mm 0,0 UV-I 0 W/m 8,2 C 10,8 C 0,0 km/h (0 Bft) 0,00 %
18.09.2014 04:00 10,3 C 87 % 1011,8 hPa 0,0 l/m 0,0 km/h (0 Bft) N 0,00 h 0,000 mm 0,0 UV-I 0 W/m 8,1 C 10,3 C 0,0 km/h (0 Bft) 0,00 %
18.09.2014 05:00 9,3 C 91 % 1012,0 hPa 0,0 l/m 0,0 km/h (0 Bft) N 0,00 h 0,000 mm 0,0 UV-I 0 W/m 7,8 C 9,3 C 0,0 km/h (0 Bft) 0,00 %
18.09.2014 06:00 8,6 C 93 % 1012,4 hPa 0,0 l/m 0,0 km/h (0 Bft) N 0,00 h 0,000 mm 1,0 UV-I 2 W/m 7,4 C 8,6 C 0,0 km/h (0 Bft) 0,00 %
18.09.2014 07:00 10,6 C 87 % 1012,1 hPa 0,0 l/m 0,0 km/h (0 Bft) S-SO 0,50 h 0,000 mm 1,3 UV-I 62 W/m 8,4 C 10,6 C 0,0 km/h (0 Bft) 0,00 %
18.09.2014 08:00 14,6 C 71 % 1011,4 hPa 0,0 l/m 0,6 km/h (0 Bft) N 0,00 h 0,000 mm 2,0 UV-I 143 W/m 9,3 C 14,6 C 3,0 km/h (1 Bft) 0,00 %
18.09.2014 09:00 15,6 C 69 % 1011,5 hPa 0,0 l/m 0,9 km/h (0 Bft) O-SO 0,00 h 0,000 mm 3,0 UV-I 217 W/m 9,8 C 15,6 C 3,0 km/h (1 Bft) 0,00 %
18.09.2014 10:00 17,5 C 64 % 1011,3 hPa 0,0 l/m 1,1 km/h (0 Bft) N 0,50 h 0,000 mm 4,0 UV-I 313 W/m 10,7 C 17,5 C 3,0 km/h (1 Bft) 0,00 %
18.09.2014 11:00 19,5 C 60 % 1010,5 hPa 0,0 l/m 1,5 km/h (1 Bft) N-NO 0,75 h 0,000 mm 5,0 UV-I 402 W/m 11,4 C 19,5 C 3,0 km/h (1 Bft) 0,00 %
18.09.2014 12:00 20,5 C 57 % 1010,1 hPa 0,0 l/m 1,8 km/h (1 Bft) NO 1,00 h 0,000 mm 5,0 UV-I 583 W/m 11,7 C 20,5 C 3,0 km/h (1 Bft) 0,00 %
18.09.2014 13:00 21,1 C 54 % 1009,6 hPa 0,0 l/m 1,4 km/h (1 Bft) N 1,00 h 0,000 mm 2,3 UV-I 660 W/m 11,5 C 21,1 C 4,0 km/h (1 Bft) 0,00 %
18.09.2014 14:00 21,5 C 56 % 1009,1 hPa 0,0 l/m 2,7 km/h (1 Bft) NO 1,00 h 0,000 mm 3,0 UV-I 616 W/m 12,2 C 21,5 C 6,0 km/h (2 Bft) 0,00 %
18.09.2014 15:00 22,1 C 54 % 1008,7 hPa 0,0 l/m 4,3 km/h (1 Bft) N-NO 1,00 h 0,000 mm 2,0 UV-I 630 W/m 12,3 C 22,1 C 8,9 km/h (2 Bft) 0,00 %
18.09.2014 16:00 22,3 C 53 % 1008,5 hPa 0,0 l/m 3,6 km/h (1 Bft) O-NO 1,00 h 0,000 mm 1,3 UV-I 608 W/m 12,2 C 22,2 C 5,9 km/h (2 Bft) 0,00 %
18.09.2014 17:00 22,3 C 51 % 1008,6 hPa 0,0 l/m 6,8 km/h (2 Bft) O-NO 1,00 h 0,000 mm 1,0 UV-I 410 W/m 11,7 C 21,8 C 8,9 km/h (2 Bft) 0,00 %
18.09.2014 18:00 20,8 C 56 % 1009,4 hPa 0,0 l/m 4,9 km/h (1 Bft) O 1,00 h 0,000 mm 0,0 UV-I 186 W/m 11,6 C 20,6 C 7,9 km/h (2 Bft) 0,00 %
18.09.2014 19:00 18,3 C 64 % 1010,3 hPa 0,0 l/m 1,6 km/h (1 Bft) SW 0,00 h 0,000 mm 0,0 UV-I 0 W/m 11,4 C 18,3 C 4,0 km/h (1 Bft) 0,00 %
18.09.2014 20:00 16,9 C 68 % 1010,9 hPa 0,0 l/m 1,1 km/h (1 Bft) O 0,00 h 0,000 mm 0,0 UV-I 0 W/m 10,8 C 16,9 C 3,0 km/h (1 Bft) 0,00 %
18.09.2014 21:00 16,0 C 70 % 1011,3 hPa 0,0 l/m 0,6 km/h (0 Bft) O-SO 0,00 h 0,000 mm 0,0 UV-I 0 W/m 10,4 C 16,0 C 2,0 km/h (1 Bft) 0,00 %
18.09.2014 22:00 15,0 C 74 % 1011,8 hPa 0,0 l/m 0,4 km/h (0 Bft) N 0,00 h 0,000 mm 0,0 UV-I 0 W/m 10,3 C 15,0 C 2,0 km/h (1 Bft) 0,00 %
18.09.2014 23:00 13,6 C 81 % 1012,3 hPa 0,0 l/m 0,0 km/h (0 Bft) N 0,00 h 0,000 mm 0,0 UV-I 0 W/m 10,4 C 13,6 C 0,0 km/h (0 Bft) 0,00 %
19.09.2014 00:00 12,9 C 83 % 1012,4 hPa 0,0 l/m 0,0 km/h (0 Bft) N 0,00 h 0,000 mm 0,0 UV-I 0 W/m 10,0 C 12,9 C 0,0 km/h (0 Bft) 0,00 %
19.09.2014 01:00 12,0 C 86 % 1012,6 hPa 0,0 l/m 0,0 km/h (0 Bft) N 0,00 h 0,000 mm 0,0 UV-I 0 W/m 9,8 C 12,0 C 0,0 km/h (0 Bft) 0,00 %
19.09.2014 02:00 11,2 C 90 % 1013,0 hPa 0,0 l/m 0,0 km/h (0 Bft) N 0,00 h 0,000 mm 0,0 UV-I 0 W/m 9,5 C 11,2 C 0,0 km/h (0 Bft) 0,00 %
19.09.2014 03:00 11,2 C 89 % 1012,8 hPa 0,0 l/m 0,0 km/h (0 Bft) N 0,00 h 0,000 mm 0,0 UV-I 0 W/m 9,5 C 11,2 C 0,0 km/h (0 Bft) 0,00 %
19.09.2014 04:00 10,9 C 91 % 1012,8 hPa 0,0 l/m 0,0 km/h (0 Bft) N 0,00 h 0,000 mm 0,0 UV-I 0 W/m 9,4 C 10,9 C 0,0 km/h (0 Bft) 0,00 %
19.09.2014 05:00 11,3 C 90 % 1013,0 hPa 0,0 l/m 0,0 km/h (0 Bft) N 0,00 h 0,000 mm 0,0 UV-I 0 W/m 9,7 C 11,3 C 0,0 km/h (0 Bft) 0,00 %
19.09.2014 06:00 11,6 C 89 % 1013,2 hPa 0,0 l/m 0,0 km/h (0 Bft) N 0,00 h 0,000 mm 1,0 UV-I 0 W/m 9,8 C 11,6 C 0,0 km/h (0 Bft) 0,00 %
19.09.2014 07:00 12,1 C 87 % 1013,6 hPa 0,0 l/m 0,0 km/h (0 Bft) N 0,00 h 0,000 mm 1,0 UV-I 52 W/m 10,0 C 12,1 C 0,0 km/h (0 Bft) 0,00 %
19.09.2014 08:00 15,5 C 73 % 1013,1 hPa 0,0 l/m 0,0 km/h (0 Bft) N 0,00 h 0,000 mm 2,0 UV-I 113 W/m 10,5 C 15,5 C 0,0 km/h (0 Bft) 0,00 %
19.09.2014 09:00 16,4 C 69 % 1013,0 hPa 0,0 l/m 0,7 km/h (0 Bft) O-SO 0,00 h 0,000 mm 3,0 UV-I 154 W/m 10,6 C 16,4 C 1,0 km/h (0 Bft) 0,00 %
19.09.2014 10:00 19,4 C 61 % 1012,5 hPa 0,0 l/m 0,2 km/h (0 Bft) N 0,00 h 0,000 mm 4,0 UV-I 273 W/m 11,6 C 19,4 C 2,0 km/h (1 Bft) 0,00 %
19.09.2014 11:00 20,9 C 59 % 1012,3 hPa 0,0 l/m 0,2 km/h (0 Bft) NW 1,00 h 0,000 mm 5,0 UV-I 408 W/m 12,4 C 20,9 C 1,0 km/h (0 Bft) 0,00 %
19.09.2014 12:00 21,3 C 57 % 1011,9 hPa 0,0 l/m 0,4 km/h (0 Bft) N 1,00 h 0,000 mm 4,3 UV-I 544 W/m 12,2 C 21,3 C 2,0 km/h (1 Bft) 0,00 %
19.09.2014 13:00 21,6 C 57 % 1011,6 hPa 0,0 l/m 1,9 km/h (1 Bft) O 0,50 h 0,000 mm 3,3 UV-I 413 W/m 12,8 C 21,6 C 5,0 km/h (1 Bft) 0,00 %
19.09.2014 14:00 22,5 C 55 % 1010,6 hPa 0,0 l/m 3,9 km/h (1 Bft) NO 0,50 h 0,000 mm 2,0 UV-I 340 W/m 12,9 C 22,4 C 7,9 km/h (2 Bft) 0,00 %
19.09.2014 15:00 22,8 C 56 % 1010,2 hPa 0,0 l/m 2,3 km/h (1 Bft) O 1,00 h 0,000 mm 2,0 UV-I 608 W/m 13,4 C 22,8 C 4,9 km/h (1 Bft) 0,00 %
19.09.2014 16:00 23,1 C 54 % 1009,8 hPa 0,0 l/m 2,5 km/h (1 Bft) O-SO 1,00 h 0,000 mm 1,0 UV-I 583 W/m 13,2 C 23,1 C 4,0 km/h (1 Bft) 0,00 %
19.09.2014 17:00 23,4 C 55 % 1009,5 hPa 0,0 l/m 1,7 km/h (1 Bft) NO 1,00 h 0,000 mm 1,0 UV-I 472 W/m 13,6 C 23,4 C 4,0 km/h (1 Bft) 0,00 %
19.09.2014 18:00 21,0 C 63 % 1010,2 hPa 0,0 l/m 1,1 km/h (1 Bft) SO 0,50 h 0,000 mm 0,0 UV-I 103 W/m 13,6 C 21,0 C 3,0 km/h (1 Bft) 0,00 %
19.09.2014 19:00 18,4 C 71 % 1011,2 hPa 0,0 l/m 0,0 km/h (0 Bft) N 0,00 h 0,000 mm 0,0 UV-I 0 W/m 13,0 C 18,4 C 0,0 km/h (0 Bft) 0,00 %
19.09.2014 20:00 17,2 C 78 % 1011,6 hPa 0,0 l/m 0,3 km/h (0 Bft) O-NO 0,00 h 0,000 mm 0,0 UV-I 0 W/m 13,3 C 17,2 C 1,0 km/h (0 Bft) 0,00 %
19.09.2014 21:00 16,6 C 82 % 1011,9 hPa 0,0 l/m 0,6 km/h (0 Bft) O 0,00 h 0,000 mm 0,0 UV-I 0 W/m 13,4 C 16,6 C 1,0 km/h (0 Bft) 0,00 %
19.09.2014 22:00 16,1 C 86 % 1012,5 hPa 0,0 l/m 0,2 km/h (0 Bft) N 0,00 h 0,000 mm 0,0 UV-I 0 W/m 13,8 C 16,1 C 1,0 km/h (0 Bft) 0,00 %
19.09.2014 23:00 16,0 C 88 % 1014,1 hPa 2,7 l/m 0,0 km/h (0 Bft) N 0,00 h 0,000 mm 0,0 UV-I 0 W/m 14,0 C 16,0 C 0,0 km/h (0 Bft) 0,00 %
20.09.2014 00:00 15,8 C 90 % 1014,0 hPa 0,9 l/m 0,0 km/h (0 Bft) N 0,00 h 0,000 mm 0,0 UV-I 0 W/m 14,1 C 15,8 C 0,0 km/h (0 Bft) 0,00 %
20.09.2014 01:00 15,5 C 91 % 1013,7 hPa 0,0 l/m 0,0 km/h (0 Bft) N 0,00 h 0,000 mm 0,0 UV-I 0 W/m 13,9 C 15,5 C 0,0 km/h (0 Bft) 0,00 %
20.09.2014 02:00 14,7 C 92 % 1013,6 hPa 0,0 l/m 0,0 km/h (0 Bft) N 0,00 h 0,000 mm 0,0 UV-I 0 W/m 13,3 C 14,7 C 0,0 km/h (0 Bft) 0,00 %
20.09.2014 03:00 13,9 C 92 % 1013,8 hPa 0,0 l/m 0,1 km/h (0 Bft) N 0,00 h 0,000 mm 0,0 UV-I 0 W/m 12,6 C 13,9 C 1,0 km/h (0 Bft) 0,00 %
20.09.2014 04:00 13,7 C 93 % 1013,9 hPa 0,0 l/m 0,0 km/h (0 Bft) N 0,00 h 0,000 mm 0,0 UV-I 0 W/m 12,6 C 13,7 C 0,0 km/h (0 Bft) 0,00 %
20.09.2014 05:00 12,7 C 93 % 1014,1 hPa 0,0 l/m 0,0 km/h (0 Bft) N 0,00 h 0,000 mm 0,0 UV-I 0 W/m 11,6 C 12,7 C 0,0 km/h (0 Bft) 0,00 %
20.09.2014 06:00 12,4 C 94 % 1013,9 hPa 0,0 l/m 0,0 km/h (0 Bft) N 0,00 h 0,000 mm 1,0 UV-I 0 W/m 11,5 C 12,4 C 0,0 km/h (0 Bft) 0,00 %
20.09.2014 07:00 12,8 C 94 % 1013,9 hPa 0,0 l/m 0,0 km/h (0 Bft) N 0,00 h 0,000 mm 1,0 UV-I 39 W/m 11,9 C 12,8 C 0,0 km/h (0 Bft) 0,00 %
20.09.2014 08:00 14,3 C 93 % 1013,5 hPa 0,0 l/m 0,0 km/h (0 Bft) N 0,00 h 0,000 mm 1,7 UV-I 99 W/m 13,2 C 14,3 C 0,0 km/h (0 Bft) 0,00 %
20.09.2014 09:00 16,0 C 91 % 1013,3 hPa 0,0 l/m 0,1 km/h (0 Bft) N 0,25 h 0,000 mm 2,0 UV-I 175 W/m 14,5 C 16,0 C 1,0 km/h (0 Bft) 0,00 %
20.09.2014 10:00 18,2 C 79 % 1013,0 hPa 0,0 l/m 0,0 km/h (0 Bft) N 0,00 h 0,000 mm 4,3 UV-I 243 W/m 14,4 C 18,2 C 0,0 km/h (0 Bft) 0,00 %
20.09.2014 11:00 21,2 C 68 % 1011,8 hPa 0,0 l/m 1,3 km/h (1 Bft) O 0,75 h 0,000 mm 4,3 UV-I 427 W/m 15,0 C 21,2 C 3,0 km/h (1 Bft) 0,00 %
20.09.2014 12:00 21,3 C 66 % 1012,0 hPa 0,0 l/m 0,0 km/h (0 Bft) N 0,50 h 0,000 mm 3,3 UV-I 386 W/m 14,6 C 21,3 C 0,0 km/h (0 Bft) 0,00 %
20.09.2014 13:00 22,5 C 64 % 1011,8 hPa 0,0 l/m 0,2 km/h (0 Bft) N 0,50 h 0,000 mm 2,0 UV-I 294 W/m 15,4 C 22,5 C 1,0 km/h (0 Bft) 0,00 %
20.09.2014 14:00 21,1 C 69 % 1011,6 hPa 0,0 l/m 0,0 km/h (0 Bft) N 0,00 h 0,000 mm 2,3 UV-I 186 W/m 15,2 C 21,1 C 0,0 km/h (0 Bft) 0,00 %
20.09.2014 15:00 21,5 C 70 % 1010,8 hPa 0,3 l/m 0,2 km/h (0 Bft) N 0,00 h 0,000 mm 2,0 UV-I 202 W/m 15,7 C 21,5 C 1,0 km/h (0 Bft) 0,00 %
20.09.2014 16:00 21,8 C 67 % 1010,2 hPa 0,0 l/m 0,2 km/h (0 Bft) W-SW 0,50 h 0,000 mm 1,0 UV-I 338 W/m 15,3 C 21,8 C 1,0 km/h (0 Bft) 0,00 %
20.09.2014 17:00 22,1 C 63 % 1010,6 hPa 0,0 l/m 0,6 km/h (0 Bft) N 0,75 h 0,000 mm 1,0 UV-I 341 W/m 14,8 C 22,1 C 1,0 km/h (0 Bft) 0,00 %
20.09.2014 18:00 20,3 C 68 % 1011,4 hPa 0,0 l/m 0,0 km/h (0 Bft) N 0,50 h 0,000 mm 0,0 UV-I 89 W/m 14,2 C 20,3 C 0,0 km/h (0 Bft) 0,00 %
20.09.2014 19:00 17,8 C 84 % 1012,2 hPa 0,0 l/m 0,0 km/h (0 Bft) N 0,00 h 0,000 mm 0,0 UV-I 0 W/m 15,1 C 17,8 C 0,0 km/h (0 Bft) 0,00 %
20.09.2014 20:00 16,9 C 86 % 1012,6 hPa 0,0 l/m 0,0 km/h (0 Bft) N 0,00 h 0,000 mm 0,0 UV-I 0 W/m 14,5 C 16,9 C 0,0 km/h (0 Bft) 0,00 %
20.09.2014 21:00 16,4 C 86 % 1012,5 hPa 0,0 l/m 0,0 km/h (0 Bft) N 0,00 h 0,000 mm 0,0 UV-I 0 W/m 14,0 C 16,4 C 0,0 km/h (0 Bft) 0,00 %
20.09.2014 22:00 16,3 C 87 % 1012,5 hPa 0,0 l/m 0,0 km/h (0 Bft) N 0,00 h 0,000 mm 0,0 UV-I 0 W/m 14,0 C 16,3 C 0,0 km/h (0 Bft) 0,00 %
20.09.2014 23:00 15,9 C 89 % 1012,7 hPa 0,0 l/m 0,0 km/h (0 Bft) N 0,00 h 0,000 mm 0,0 UV-I 0 W/m 14,0 C 15,9 C 0,0 km/h (0 Bft) 0,00 %
21.09.2014 00:00 16,0 C 88 % 1012,8 hPa 0,0 l/m 0,7 km/h (0 Bft) W-SW 0,00 h 0,000 mm 0,0 UV-I 0 W/m 14,1 C 16,0 C 2,0 km/h (1 Bft) 0,00 %
21.09.2014 01:00 15,8 C 86 % 1013,1 hPa 0,0 l/m 0,0 km/h (0 Bft) SW 0,00 h 0,000 mm 0,0 UV-I 0 W/m 13,5 C 15,8 C 0,0 km/h (0 Bft) 0,00 %
21.09.2014 02:00 15,9 C 82 % 1013,1 hPa 0,0 l/m 1,0 km/h (0 Bft) SW 0,00 h 0,000 mm 0,0 UV-I 0 W/m 12,9 C 15,9 C 3,0 km/h (1 Bft) 0,00 %
21.09.2014 03:00 15,4 C 84 % 1013,3 hPa 0,0 l/m 0,1 km/h (0 Bft) N 0,00 h 0,000 mm 0,0 UV-I 0 W/m 12,8 C 15,4 C 1,0 km/h (0 Bft) 0,00 %
21.09.2014 04:00 14,6 C 87 % 1013,3 hPa 0,0 l/m 0,0 km/h (0 Bft) N 0,00 h 0,000 mm 0,0 UV-I 0 W/m 12,5 C 14,6 C 0,0 km/h (0 Bft) 0,00 %
21.09.2014 05:00 14,6 C 86 % 1012,9 hPa 0,0 l/m 0,0 km/h (0 Bft) N 0,00 h 0,000 mm 0,0 UV-I 0 W/m 12,3 C 14,6 C 0,0 km/h (0 Bft) 0,00 %
21.09.2014 06:00 13,6 C 89 % 1013,1 hPa 0,0 l/m 0,0 km/h (0 Bft) N 0,00 h 0,000 mm 1,0 UV-I 0 W/m 11,8 C 13,6 C 0,0 km/h (0 Bft) 0,00 %
21.09.2014 07:00 13,6 C 91 % 1013,0 hPa 0,0 l/m 0,1 km/h (0 Bft) N 0,00 h 0,000 mm 1,3 UV-I 40 W/m 12,1 C 13,6 C 1,0 km/h (0 Bft) 0,00 %
21.09.2014 08:00 18,0 C 74 % 1011,8 hPa 0,0 l/m 0,3 km/h (0 Bft) N 0,00 h 0,000 mm 2,0 UV-I 120 W/m 13,1 C 18,0 C 2,0 km/h (1 Bft) 0,00 %
21.09.2014 09:00 20,2 C 66 % 1011,3 hPa 0,0 l/m 0,3 km/h (0 Bft) N 0,00 h 0,000 mm 2,3 UV-I 194 W/m 13,5 C 20,2 C 2,0 km/h (1 Bft) 0,00 %
21.09.2014 10:00 19,7 C 71 % 1011,5 hPa 0,9 l/m 0,8 km/h (0 Bft) W-SW 0,25 h 0,000 mm 2,0 UV-I 245 W/m 14,2 C 19,7 C 3,0 km/h (1 Bft) 0,00 %
21.09.2014 11:00 17,6 C 82 % 1011,7 hPa 0,9 l/m 0,0 km/h (0 Bft) N 0,00 h 0,000 mm 3,5 UV-I 169 W/m 14,3 C 17,6 C 0,0 km/h (0 Bft) 0,00 %
21.09.2014 12:00 18,8 C 79 % 1011,6 hPa 5,7 l/m 0,7 km/h (0 Bft) W-NW 0,25 h 0,000 mm 1,3 UV-I 294 W/m 15,0 C 18,8 C 2,0 km/h (1 Bft) 0,00 %
21.09.2014 13:00 16,5 C 86 % 1012,1 hPa 3,0 l/m 0,2 km/h (0 Bft) N 0,25 h 0,000 mm 3,0 UV-I 233 W/m 14,2 C 16,5 C 2,0 km/h (1 Bft) 0,00 %
21.09.2014 14:00 19,1 C 78 % 1010,7 hPa 0,0 l/m 0,4 km/h (0 Bft) N 0,75 h 0,000 mm 3,0 UV-I 338 W/m 15,2 C 19,1 C 3,0 km/h (1 Bft) 0,00 %
21.09.2014 15:00 20,0 C 73 % 1009,6 hPa 0,0 l/m 2,2 km/h (1 Bft) SW 0,25 h 0,000 mm 1,7 UV-I 278 W/m 15,1 C 19,9 C 4,0 km/h (1 Bft) 0,00 %
21.09.2014 16:00 19,6 C 74 % 1009,2 hPa 0,6 l/m 0,4 km/h (0 Bft) N 0,00 h 0,000 mm 0,0 UV-I 155 W/m 14,9 C 19,6 C 3,0 km/h (1 Bft) 0,00 %
21.09.2014 17:00 16,0 C 84 % 1010,1 hPa 2,1 l/m 1,2 km/h (1 Bft) SW 0,00 h 0,000 mm 1,0 UV-I 35 W/m 13,3 C 16,0 C 4,0 km/h (1 Bft) 0,00 %
21.09.2014 18:00 15,1 C 84 % 1009,7 hPa 0,0 l/m 0,3 km/h (0 Bft) NW 0,00 h 0,000 mm 0,0 UV-I 29 W/m 12,4 C 15,1 C 1,0 km/h (0 Bft) 0,00 %
21.09.2014 19:00 14,0 C 87 % 1010,0 hPa 0,0 l/m 0,0 km/h (0 Bft) N 0,00 h 0,000 mm 0,0 UV-I 0 W/m 11,8 C 14,0 C 0,0 km/h (0 Bft) 0,00 %
21.09.2014 20:00 14,0 C 85 % 1010,3 hPa 0,0 l/m 0,3 km/h (0 Bft) W-SW 0,00 h 0,000 mm 0,0 UV-I 0 W/m 11,5 C 14,0 C 2,0 km/h (1 Bft) 0,00 %
21.09.2014 21:00 14,5 C 84 % 1009,9 hPa 0,0 l/m 2,8 km/h (1 Bft) W-NW 0,00 h 0,000 mm 0,0 UV-I 0 W/m 11,8 C 14,5 C 6,9 km/h (2 Bft) 0,00 %
21.09.2014 22:00 14,5 C 84 % 1009,9 hPa 0,3 l/m 3,9 km/h (1 Bft) N-NO 0,00 h 0,000 mm 0,0 UV-I 0 W/m 11,8 C 14,5 C 6,9 km/h (2 Bft) 0,00 %
21.09.2014 23:00 14,3 C 84 % 1009,8 hPa 0,0 l/m 0,9 km/h (0 Bft) S 0,00 h 0,000 mm 0,0 UV-I 0 W/m 11,6 C 14,3 C 4,0 km/h (1 Bft) 0,00 %
Min-Datum _ 18.09.14 17.09.14 17.09.14 - 15.09.14 - - - - - 18.09.14 18.09.14 15.09.14 15.09.14
_ Min-Zeit 06:45 17:00 17:30 - 00:00 - - - - - 06:30 06:45 00:00 00:00
Minimum _ 8,3 C 42 % 1008,3 hPa - 0,0 km/h (0 Bft) - - - - - 7,2 C 8,3 C 0,0 km/h (0 Bft) 0,00 %
Max-Datum _ 19.09.14 15.09.14 15.09.14 21.09.14 17.09.14 - 15.09.14 15.09.14 15.09.14 21.09.14 21.09.14 19.09.14 16.09.14 15.09.14
_ Max-Zeit 17:15 04:15 06:30 12:45 15:45 - 11:45 00:00 12:00 12:15 12:30 17:15 16:15 00:00
Maximum _ 23,7 C 96 % 1016,3 hPa 5,7 l/m 16,9 km/h
O-SO (3 Bft)
- 0,25 h 0,000 mm 6,0 UV-I 750 W/m 16,0 C 23,7 C 24,1 km/h
O-SO (4 Bft)
0,00 %
Durchschnitt _ 16,2 C 77 % 1012,4 hPa #17,4 l/m 1,3 km/h (1 Bft) O #43:30 h #0,000 mm 2,4 UV-I 319 W/m 11,8 C 16,1 C 2,8 km/h (1 Bft) 0,00 %